Time;durP1;ratioP1;P1;durP2;ratioP2;P2;SDS_P1;SDS_P2;PMS_P1;PMS_P2;Temp;Humidity;BMP_temperature;BMP_pressure;BME280_temperature;BME280_humidity;BME280_pressure;Samples;Min_cycle;Max_cycle;Signal;HPM_P1;HPM_P2
2024/04/25 00:00:47;;;;;;;3.45;0.88;;;5.10;99.90;;;;;;5328030;26;20005;-66
2024/04/25 00:03:13;;;;;;;1.63;0.70;;;5.10;99.90;;;;;;5328584;26;20013;-66
2024/04/25 00:05:40;;;;;;;3.63;1.95;;;5.10;99.90;;;;;;5320254;26;20382;-66
2024/04/25 00:08:07;;;;;;;1.10;0.50;;;5.10;99.90;;;;;;5323858;26;20017;-66
2024/04/25 00:10:34;;;;;;;2.28;0.52;;;5.00;99.90;;;;;;5319420;26;20017;-66
2024/04/25 00:13:00;;;;;;;0.95;0.30;;;5.00;99.90;;;;;;5323252;26;20127;-66
2024/04/25 00:15:26;;;;;;;0.68;0.40;;;5.00;99.90;;;;;;5330796;26;20009;-66
2024/04/25 00:17:52;;;;;;;0.70;0.40;;;5.00;99.90;;;;;;5328422;26;20013;-67
2024/04/25 00:20:18;;;;;;;1.02;0.43;;;5.00;99.90;;;;;;5327021;26;20021;-67
2024/04/25 00:22:44;;;;;;;0.93;0.30;;;5.00;99.90;;;;;;5328678;26;20090;-67
2024/04/25 00:25:29;;;;;;;0.93;0.40;;;5.00;99.90;;;;;;5327026;26;20001;-67
2024/04/25 00:27:58;;;;;;;1.30;0.40;;;4.90;99.90;;;;;;5329699;26;20346;-68
2024/04/25 00:30:24;;;;;;;1.80;0.50;;;4.90;99.90;;;;;;5327782;26;20100;-69
2024/04/25 00:32:52;;;;;;;1.85;0.40;;;4.90;99.90;;;;;;5327912;26;20022;-68
2024/04/25 00:35:18;;;;;;;2.03;0.40;;;4.90;99.90;;;;;;5350948;26;20411;-68
2024/04/25 00:37:44;;;;;;;0.73;0.40;;;4.90;99.90;;;;;;5332305;26;20016;-67
2024/04/25 00:40:10;;;;;;;2.65;0.73;;;4.90;99.90;;;;;;5326771;26;20086;-67
2024/04/25 00:42:36;;;;;;;2.22;0.40;;;4.90;99.90;;;;;;5330860;26;20005;-67
2024/04/25 00:45:02;;;;;;;2.35;0.63;;;4.90;99.90;;;;;;5351777;26;20057;-67
2024/04/25 00:47:49;;;;;;;0.95;0.63;;;4.90;99.90;;;;;;5322887;26;20052;-68
2024/04/25 00:50:16;;;;;;;1.33;0.50;;;4.90;99.90;;;;;;5338039;26;20346;-67
2024/04/25 00:52:42;;;;;;;2.72;0.65;;;5.00;99.90;;;;;;5321103;26;20019;-68
2024/04/25 00:55:08;;;;;;;1.90;0.70;;;4.90;99.90;;;;;;5323901;26;20006;-68
2024/04/25 00:57:34;;;;;;;2.33;0.65;;;4.90;99.90;;;;;;5331655;26;20006;-68
2024/04/25 01:00:01;;;;;;;3.45;1.15;;;4.90;99.90;;;;;;5321197;26;20006;-68
2024/04/25 01:02:29;;;;;;;2.58;0.88;;;5.00;99.90;;;;;;5323166;26;20021;-69
2024/04/25 01:04:55;;;;;;;2.70;0.93;;;4.90;99.90;;;;;;5323090;26;20032;-69
2024/04/25 01:07:21;;;;;;;2.92;0.80;;;4.90;99.90;;;;;;5324028;26;20023;-69
2024/04/25 01:09:47;;;;;;;4.30;0.98;;;4.90;99.90;;;;;;5317633;26;20009;-69
2024/04/25 01:12:13;;;;;;;4.68;1.13;;;5.00;99.90;;;;;;5331335;26;20565;-69
2024/04/25 01:14:39;;;;;;;1.27;0.90;;;5.00;99.90;;;;;;5330972;26;20072;-69
2024/04/25 01:17:05;;;;;;;5.20;1.00;;;4.90;99.90;;;;;;5335141;26;20415;-69
2024/04/25 01:19:31;;;;;;;4.80;0.90;;;4.90;99.90;;;;;;5326487;26;20013;-68
2024/04/25 01:21:57;;;;;;;3.70;1.20;;;4.90;99.90;;;;;;5329673;26;20045;-68
2024/04/25 01:24:28;;;;;;;4.32;0.80;;;4.90;99.90;;;;;;5332605;26;20005;-68
2024/04/25 01:26:55;;;;;;;5.80;1.35;;;4.90;99.90;;;;;;5335796;26;20028;-69
2024/04/25 01:29:23;;;;;;;2.88;0.52;;;4.90;99.90;;;;;;5329434;26;20011;-68
2024/04/25 01:31:50;;;;;;;5.20;1.17;;;4.90;99.90;;;;;;5329369;26;20009;-68
2024/04/25 01:34:17;;;;;;;2.70;0.80;;;4.90;99.90;;;;;;5331094;26;20017;-68
2024/04/25 01:36:43;;;;;;;6.97;1.00;;;4.80;99.90;;;;;;5326771;26;20961;-69
2024/04/25 01:39:13;;;;;;;4.65;0.70;;;4.80;99.90;;;;;;5332906;26;20005;-68
2024/04/25 01:41:39;;;;;;;2.15;0.70;;;4.70;99.90;;;;;;5353379;26;20452;-68
2024/04/25 01:44:05;;;;;;;5.47;0.73;;;4.80;99.90;;;;;;5331136;26;20013;-69
2024/04/25 01:46:31;;;;;;;4.18;0.60;;;4.70;99.90;;;;;;5323997;26;20865;-68
2024/04/25 01:48:59;;;;;;;3.83;0.77;;;4.70;99.90;;;;;;5319150;26;20010;-69
2024/04/25 01:51:26;;;;;;;6.38;0.73;;;4.70;99.90;;;;;;5326473;26;20409;-68
2024/04/25 01:53:51;;;;;;;8.57;0.85;;;4.70;99.90;;;;;;5320388;26;20028;-68
2024/04/25 01:56:17;;;;;;;8.15;1.00;;;4.60;99.90;;;;;;5352932;26;20068;-68
2024/04/25 01:58:43;;;;;;;3.83;0.50;;;4.60;99.90;;;;;;5329512;26;20453;-68
2024/04/25 02:01:09;;;;;;;4.00;0.40;;;4.50;99.90;;;;;;5336056;26;20457;-68
2024/04/25 02:03:35;;;;;;;5.40;0.70;;;4.50;99.90;;;;;;5324468;26;20009;-68
2024/04/25 02:06:03;;;;;;;5.25;0.85;;;4.50;99.90;;;;;;5324284;26;20086;-68
2024/04/25 02:08:29;;;;;;;7.60;0.90;;;4.50;99.90;;;;;;5333277;26;20024;-69
2024/04/25 02:11:14;;;;;;;4.57;0.55;;;4.50;99.90;;;;;;5336068;26;20005;-68
2024/04/25 02:13:40;;;;;;;4.75;0.70;;;4.50;99.90;;;;;;5330126;26;20496;-68
2024/04/25 02:16:06;;;;;;;4.35;0.93;;;4.50;99.90;;;;;;5330242;26;20354;-68
2024/04/25 02:18:32;;;;;;;6.95;1.50;;;4.50;99.90;;;;;;5333962;26;20456;-69
2024/04/25 02:26:26;;;;;;;10.30;1.45;;;4.50;99.90;;;;;;5329581;26;20699;-68
2024/04/25 02:28:52;;;;;;;8.32;0.65;;;4.50;99.90;;;;;;5327520;26;20015;-68
2024/04/25 02:31:21;;;;;;;9.75;0.85;;;4.60;99.90;;;;;;5327636;26;20016;-69
2024/04/25 02:33:47;;;;;;;6.75;0.80;;;4.50;99.90;;;;;;5323520;26;20020;-68
2024/04/25 02:36:13;;;;;;;6.35;1.00;;;4.50;99.90;;;;;;5325105;26;20009;-68
2024/04/25 02:38:52;;;;;;;7.40;0.70;;;4.50;99.90;;;;;;5349488;26;20454;-68
2024/04/25 02:41:18;;;;;;;7.40;0.90;;;4.50;99.90;;;;;;5320016;26;20021;-68
2024/04/25 02:43:44;;;;;;;4.57;0.80;;;4.50;99.90;;;;;;5329484;26;20009;-68
2024/04/25 02:46:09;;;;;;;5.30;0.90;;;4.50;99.90;;;;;;5317190;26;20009;-68
2024/04/25 02:48:35;;;;;;;4.57;0.70;;;4.40;99.90;;;;;;5322694;26;20043;-68
2024/04/25 02:51:01;;;;;;;6.07;1.02;;;4.40;99.90;;;;;;5328989;26;20045;-68
2024/04/25 02:53:27;;;;;;;9.77;1.98;;;4.40;99.90;;;;;;5325096;26;20041;-69
2024/04/25 02:55:53;;;;;;;7.10;0.98;;;4.40;99.90;;;;;;5325790;26;20882;-68
2024/04/25 02:58:18;;;;;;;4.40;0.80;;;4.40;99.90;;;;;;5332307;26;20021;-68
2024/04/25 03:00:44;;;;;;;7.90;1.13;;;4.40;99.90;;;;;;5329287;26;20006;-68
2024/04/25 03:03:11;;;;;;;5.90;1.05;;;4.30;99.90;;;;;;5331910;26;20016;-68
2024/04/25 03:05:58;;;;;;;4.70;0.75;;;4.30;99.90;;;;;;5323469;26;20006;-68
2024/04/25 03:08:24;;;;;;;6.60;1.10;;;4.30;99.90;;;;;;5332577;26;20005;-68
2024/04/25 03:10:50;;;;;;;7.93;1.10;;;4.30;99.90;;;;;;5335331;26;20476;-68
2024/04/25 03:13:35;;;;;;;6.70;1.00;;;4.30;99.90;;;;;;5325118;26;20083;-69
2024/04/25 03:16:05;;;;;;;9.40;0.93;;;4.20;99.90;;;;;;5329763;26;20013;-68
2024/04/25 03:18:34;;;;;;;6.20;1.30;;;4.20;99.90;;;;;;5347782;26;20009;-68
2024/04/25 03:21:01;;;;;;;11.90;1.38;;;4.20;99.90;;;;;;5318573;26;20010;-68
2024/04/25 03:23:27;;;;;;;7.30;0.90;;;4.20;99.90;;;;;;5327776;26;20023;-69
2024/04/25 03:25:53;;;;;;;9.55;1.38;;;4.20;99.90;;;;;;5325078;26;20017;-68
2024/04/25 03:28:26;;;;;;;6.68;0.82;;;4.20;99.90;;;;;;5314373;26;20028;-68
2024/04/25 03:30:52;;;;;;;12.40;1.30;;;4.20;99.90;;;;;;5323814;26;20017;-68
2024/04/25 03:33:30;;;;;;;5.43;0.95;;;4.20;99.90;;;;;;5311431;26;20021;-68
2024/04/25 03:35:56;;;;;;;7.53;1.40;;;4.20;99.90;;;;;;5332233;26;20342;-69
2024/04/25 03:38:22;;;;;;;8.82;1.00;;;4.20;99.90;;;;;;5321472;26;20009;-68
2024/04/25 03:40:59;;;;;;;8.32;1.40;;;4.20;99.90;;;;;;5326807;26;20009;-69
2024/04/25 03:43:26;;;;;;;7.43;1.52;;;4.10;99.90;;;;;;5324999;26;20017;-69
2024/04/25 03:46:12;;;;;;;12.10;1.38;;;4.10;99.90;;;;;;5335327;26;20005;-69
2024/04/25 03:48:38;;;;;;;8.27;1.10;;;4.10;99.90;;;;;;5323366;26;20009;-69
2024/04/25 03:51:23;;;;;;;8.55;1.27;;;4.00;99.90;;;;;;5330657;26;20012;-69
2024/04/25 03:53:49;;;;;;;7.30;1.55;;;4.00;99.90;;;;;;5335946;26;20009;-69
2024/04/25 03:56:15;;;;;;;7.57;1.55;;;3.90;99.90;;;;;;5330329;26;20016;-69
2024/04/25 03:58:41;;;;;;;9.82;1.15;;;3.90;99.90;;;;;;5324224;26;20009;-69
2024/04/25 04:01:07;;;;;;;8.75;1.05;;;3.80;99.90;;;;;;5332004;26;20455;-69
2024/04/25 04:03:33;;;;;;;9.30;1.30;;;3.80;99.90;;;;;;5326950;26;20006;-69
2024/04/25 04:06:19;;;;;;;8.00;1.23;;;3.70;99.90;;;;;;5326631;26;20020;-69
2024/04/25 04:08:45;;;;;;;8.48;1.30;;;3.70;99.90;;;;;;5324255;26;20033;-69
2024/04/25 04:11:14;;;;;;;10.18;1.27;;;3.70;99.90;;;;;;5329274;26;20409;-69
2024/04/25 04:13:40;;;;;;;9.20;1.20;;;3.70;99.90;;;;;;5320441;26;20009;-69
2024/04/25 04:16:08;;;;;;;9.70;1.30;;;3.60;99.90;;;;;;5330342;26;20009;-69
2024/04/25 04:18:54;;;;;;;5.30;1.00;;;3.60;99.90;;;;;;5322395;26;20053;-69
2024/04/25 04:21:20;;;;;;;5.30;1.05;;;3.50;99.90;;;;;;5327377;26;20021;-69
2024/04/25 04:23:47;;;;;;;8.95;1.35;;;3.50;99.90;;;;;;5313443;26;20497;-69
2024/04/25 04:26:13;;;;;;;4.30;0.80;;;3.50;99.90;;;;;;5326700;26;20015;-69
2024/04/25 04:28:39;;;;;;;6.70;1.33;;;3.50;99.90;;;;;;5326516;26;20494;-69
2024/04/25 04:31:06;;;;;;;7.85;1.27;;;3.50;99.90;;;;;;5335021;26;20009;-69
2024/04/25 04:33:34;;;;;;;6.10;0.80;;;3.50;99.90;;;;;;5322457;26;20009;-69
2024/04/25 04:36:03;;;;;;;5.82;1.20;;;3.50;99.90;;;;;;5350057;26;20345;-69
2024/04/25 04:38:32;;;;;;;9.15;1.40;;;3.50;99.90;;;;;;5348126;26;20104;-70
2024/04/25 04:40:57;;;;;;;6.78;1.13;;;3.50;99.90;;;;;;5328651;26;20029;-67
2024/04/25 04:43:24;;;;;;;10.32;1.48;;;3.50;99.90;;;;;;5330755;26;20341;-68
2024/04/25 04:45:54;;;;;;;12.88;1.90;;;3.50;99.90;;;;;;5347940;26;20012;-68
2024/04/25 04:48:22;;;;;;;11.45;1.75;;;3.50;99.90;;;;;;5329850;26;20346;-68
2024/04/25 04:50:47;;;;;;;11.00;1.50;;;3.50;99.90;;;;;;5326193;26;20021;-68
2024/04/25 04:53:13;;;;;;;7.30;1.20;;;3.50;99.90;;;;;;5335659;26;20035;-67
2024/04/25 04:55:40;;;;;;;9.48;1.77;;;3.60;99.90;;;;;;5326839;26;20008;-67
2024/04/25 04:58:08;;;;;;;9.43;1.50;;;3.60;99.90;;;;;;5332362;26;20013;-67
2024/04/25 05:00:34;;;;;;;7.07;1.42;;;3.60;99.90;;;;;;5320960;26;20349;-68
2024/04/25 05:03:01;;;;;;;9.75;1.20;;;3.60;99.90;;;;;;5327999;26;20091;-67
2024/04/25 05:05:28;;;;;;;11.00;1.40;;;3.60;99.90;;;;;;5328585;26;20477;-68
2024/04/25 05:07:58;;;;;;;9.82;1.55;;;3.60;99.90;;;;;;5332156;26;20004;-68
2024/04/25 05:10:25;;;;;;;8.05;1.40;;;3.70;99.90;;;;;;5315792;26;20019;-67
2024/04/25 05:12:52;;;;;;;10.55;1.30;;;3.70;99.90;;;;;;5322490;26;20047;-67
2024/04/25 05:15:18;;;;;;;5.25;1.40;;;3.80;99.90;;;;;;5318028;26;20010;-68
2024/04/25 05:17:44;;;;;;;34.55;22.42;;;3.80;99.90;;;;;;5326277;26;20426;-67
2024/04/25 05:20:10;;;;;;;12.75;3.88;;;3.90;99.90;;;;;;5318649;26;20017;-68
2024/04/25 05:22:36;;;;;;;8.82;1.60;;;4.00;99.90;;;;;;5321707;26;20010;-67
2024/04/25 05:25:02;;;;;;;11.45;1.50;;;4.00;99.90;;;;;;5323659;26;20079;-67
2024/04/25 05:27:28;;;;;;;11.13;2.78;;;4.10;99.90;;;;;;5328483;26;20020;-67
2024/04/25 05:29:54;;;;;;;6.75;1.02;;;4.20;99.90;;;;;;5335524;26;20010;-67
2024/04/25 05:32:20;;;;;;;9.38;1.60;;;4.30;99.90;;;;;;5324164;26;20021;-67
2024/04/25 05:34:47;;;;;;;8.98;1.25;;;4.30;99.90;;;;;;5326916;26;20005;-68
2024/04/25 05:37:13;;;;;;;7.68;1.35;;;4.40;99.90;;;;;;5327147;26;20005;-67
2024/04/25 05:39:39;;;;;;;8.13;1.48;;;4.50;99.90;;;;;;5324627;26;20009;-68
2024/04/25 05:42:05;;;;;;;11.82;1.48;;;4.60;99.90;;;;;;5327597;26;20404;-68
2024/04/25 05:44:31;;;;;;;7.00;1.23;;;4.60;99.90;;;;;;5321595;26;20463;-67
2024/04/25 05:46:57;;;;;;;5.70;1.00;;;4.70;99.90;;;;;;5321218;26;20019;-67
2024/04/25 05:49:24;;;;;;;7.22;1.25;;;4.80;99.90;;;;;;5330794;26;20005;-68
2024/04/25 05:51:49;;;;;;;10.35;1.33;;;4.90;99.90;;;;;;5324639;26;20013;-67
2024/04/25 05:54:15;;;;;;;9.90;1.75;;;5.00;99.90;;;;;;5319057;26;20585;-68
2024/04/25 05:56:41;;;;;;;9.07;1.42;;;5.10;99.90;;;;;;5315542;26;20005;-68
2024/04/25 05:59:09;;;;;;;5.18;1.02;;;5.20;99.90;;;;;;5321370;26;20006;-67
2024/04/25 06:01:34;;;;;;;8.43;1.35;;;5.30;99.90;;;;;;5331096;26;20010;-67
2024/04/25 06:04:00;;;;;;;8.27;1.20;;;5.30;99.90;;;;;;5319276;26;20266;-68
2024/04/25 06:06:27;;;;;;;8.13;1.75;;;5.30;99.90;;;;;;5322428;26;20013;-68
2024/04/25 06:08:53;;;;;;;7.13;1.20;;;5.40;99.90;;;;;;5327541;26;20580;-68
2024/04/25 06:11:19;;;;;;;5.78;1.10;;;5.40;99.90;;;;;;5323716;26;20010;-67
2024/04/25 06:13:45;;;;;;;9.30;1.30;;;5.40;99.90;;;;;;5323337;26;20027;-68
2024/04/25 06:16:11;;;;;;;8.13;0.90;;;5.50;99.90;;;;;;5332361;26;20445;-68
2024/04/25 06:18:37;;;;;;;6.57;1.35;;;5.50;99.90;;;;;;5323628;26;20342;-68
2024/04/25 06:21:03;;;;;;;6.22;1.27;;;5.50;99.90;;;;;;5328592;26;20094;-68
2024/04/25 06:23:29;;;;;;;13.27;1.60;;;5.60;99.90;;;;;;5328082;26;20029;-68
2024/04/25 06:25:55;;;;;;;6.40;1.08;;;5.70;99.90;;;;;;5331029;26;20020;-68
2024/04/25 06:28:21;;;;;;;6.18;1.00;;;5.70;99.90;;;;;;5330685;26;20009;-68
2024/04/25 06:30:47;;;;;;;7.03;1.25;;;5.80;99.90;;;;;;5353760;26;20025;-68
2024/04/25 06:33:13;;;;;;;7.05;1.13;;;5.90;99.90;;;;;;5327289;26;20383;-67
2024/04/25 06:35:38;;;;;;;5.47;1.40;;;5.90;99.90;;;;;;5332386;26;20082;-67
2024/04/25 06:38:04;;;;;;;8.30;1.35;;;5.90;99.90;;;;;;5330248;26;20013;-68
2024/04/25 06:40:30;;;;;;;8.30;1.13;;;6.00;99.90;;;;;;5322978;26;20008;-67
2024/04/25 06:42:56;;;;;;;6.55;1.15;;;6.10;99.90;;;;;;5322972;26;20014;-68
2024/04/25 06:45:21;;;;;;;4.90;0.90;;;6.20;99.90;;;;;;5325206;26;20020;-67
2024/04/25 06:47:47;;;;;;;7.45;1.35;;;6.30;99.90;;;;;;5327638;26;20015;-66
2024/04/25 06:50:13;;;;;;;4.43;0.75;;;6.30;99.90;;;;;;5328119;26;20075;-66
2024/04/25 06:52:39;;;;;;;7.80;1.42;;;6.40;99.90;;;;;;5323891;26;20377;-67
2024/04/25 06:55:05;;;;;;;13.35;1.80;;;6.40;99.90;;;;;;5317595;26;20017;-66
2024/04/25 06:57:31;;;;;;;10.35;1.50;;;6.50;99.90;;;;;;5318351;26;20016;-66
2024/04/25 06:59:57;;;;;;;9.18;1.17;;;6.60;99.90;;;;;;5329677;26;20017;-67
2024/04/25 07:02:23;;;;;;;8.25;1.40;;;6.70;99.90;;;;;;5327189;26;20470;-66
2024/04/25 07:04:48;;;;;;;9.88;1.63;;;6.70;99.90;;;;;;5335383;26;20008;-66
2024/04/25 07:07:15;;;;;;;12.23;1.58;;;6.70;99.90;;;;;;5320254;26;20002;-66
2024/04/25 07:09:41;;;;;;;8.63;1.42;;;6.80;99.90;;;;;;5322438;26;20005;-66
2024/04/25 07:12:07;;;;;;;9.80;1.00;;;6.90;99.90;;;;;;5329123;26;20020;-67
2024/04/25 07:14:33;;;;;;;8.15;1.38;;;7.00;99.90;;;;;;5324216;26;20067;-66
2024/04/25 07:16:58;;;;;;;7.07;1.48;;;7.10;99.90;;;;;;5332194;26;20020;-67
2024/04/25 07:19:24;;;;;;;6.78;1.20;;;7.20;99.90;;;;;;5332089;26;20009;-67
2024/04/25 07:21:50;;;;;;;8.88;1.55;;;7.20;99.90;;;;;;5332066;26;20027;-67
2024/04/25 07:24:16;;;;;;;8.07;1.65;;;7.30;99.90;;;;;;5327588;26;20024;-66
2024/04/25 07:26:41;;;;;;;9.55;2.65;;;7.30;99.90;;;;;;5326604;26;20008;-66
2024/04/25 07:29:07;;;;;;;8.15;1.67;;;7.40;99.90;;;;;;5330144;26;20395;-67
2024/04/25 07:31:33;;;;;;;5.68;1.45;;;7.50;99.90;;;;;;5331437;26;20009;-67
2024/04/25 07:33:59;;;;;;;8.65;1.20;;;7.60;99.90;;;;;;5333549;26;20029;-66
2024/04/25 07:36:25;;;;;;;9.32;1.10;;;7.60;99.90;;;;;;5336630;26;20020;-66
2024/04/25 07:38:51;;;;;;;4.25;1.17;;;7.60;99.90;;;;;;5326877;26;20009;-66
2024/04/25 07:41:17;;;;;;;7.45;1.27;;;7.60;99.90;;;;;;5321462;26;20009;-67
2024/04/25 07:43:42;;;;;;;3.72;1.42;;;7.60;99.90;;;;;;5324098;26;20013;-67
2024/04/25 07:46:09;;;;;;;6.43;1.17;;;7.70;99.90;;;;;;5320281;26;20005;-66
2024/04/25 07:48:36;;;;;;;3.28;0.70;;;7.70;99.90;;;;;;5322133;26;20009;-66
2024/04/25 07:51:02;;;;;;;6.78;0.88;;;7.80;99.90;;;;;;5323395;26;20009;-67
2024/04/25 07:53:28;;;;;;;5.97;0.65;;;7.80;99.90;;;;;;5328943;26;20053;-67
2024/04/25 07:55:54;;;;;;;6.95;0.93;;;7.90;99.90;;;;;;5329145;26;20084;-66
2024/04/25 07:58:20;;;;;;;7.35;1.10;;;8.00;99.90;;;;;;5330386;26;20006;-66
2024/04/25 08:00:46;;;;;;;7.50;1.17;;;8.10;99.90;;;;;;5322034;26;20330;-65
2024/04/25 08:03:12;;;;;;;5.65;1.08;;;8.10;99.90;;;;;;5321894;26;20028;-66
2024/04/25 08:05:38;;;;;;;3.70;0.88;;;8.20;99.90;;;;;;5329923;26;20024;-66
2024/04/25 08:08:04;;;;;;;4.22;0.73;;;8.20;99.90;;;;;;5330460;26;20460;-65
2024/04/25 08:10:30;;;;;;;6.40;0.88;;;8.30;99.90;;;;;;5331392;26;20009;-65
2024/04/25 08:12:56;;;;;;;8.40;1.27;;;8.50;99.90;;;;;;5330093;26;20508;-65
2024/04/25 08:15:22;;;;;;;7.22;1.13;;;8.70;99.90;;;;;;5335794;26;20052;-65
2024/04/25 08:17:50;;;;;;;5.30;1.17;;;8.90;99.90;;;;;;5319228;26;20514;-65
2024/04/25 08:20:16;;;;;;;6.70;1.20;;;9.00;99.90;;;;;;5333798;26;20006;-65
2024/04/25 08:22:41;;;;;;;7.18;1.45;;;9.20;99.90;;;;;;5328703;26;20077;-65
2024/04/25 08:25:07;;;;;;;6.57;1.15;;;9.40;99.90;;;;;;5323396;26;20369;-66
2024/04/25 08:27:33;;;;;;;3.83;1.15;;;9.50;99.90;;;;;;5331606;26;20009;-66
2024/04/25 08:29:59;;;;;;;6.78;0.90;;;9.70;99.90;;;;;;5328080;26;20445;-66
2024/04/25 08:32:25;;;;;;;6.15;1.00;;;9.80;99.90;;;;;;5321412;26;20005;-65
2024/04/25 08:34:51;;;;;;;7.43;0.98;;;9.80;99.90;;;;;;5320276;26;20008;-65
2024/04/25 08:37:17;;;;;;;6.75;1.20;;;9.90;99.90;;;;;;5325757;26;20024;-66
2024/04/25 08:39:42;;;;;;;10.25;1.45;;;10.10;99.90;;;;;;5325512;26;20009;-66
2024/04/25 08:42:10;;;;;;;8.25;1.25;;;10.30;99.90;;;;;;5330997;26;20065;-66
2024/04/25 08:44:39;;;;;;;8.77;1.33;;;10.50;99.90;;;;;;5333627;26;20017;-65
2024/04/25 08:47:08;;;;;;;8.00;1.33;;;10.60;99.90;;;;;;5329954;26;20009;-65
2024/04/25 08:49:36;;;;;;;8.60;1.42;;;10.70;99.90;;;;;;5329617;26;20045;-65
2024/04/25 08:52:04;;;;;;;6.57;1.20;;;10.70;99.90;;;;;;5325346;26;20086;-65
2024/04/25 08:54:31;;;;;;;5.97;1.58;;;10.80;99.90;;;;;;5330368;26;20023;-66
2024/04/25 08:56:57;;;;;;;5.80;1.20;;;10.60;99.90;;;;;;5328194;26;20017;-66
2024/04/25 08:59:24;;;;;;;5.85;1.27;;;10.40;99.90;;;;;;5328809;26;20479;-66
2024/04/25 09:01:52;;;;;;;4.28;0.70;;;10.20;99.90;;;;;;5324298;26;20025;-66
2024/04/25 09:04:22;;;;;;;9.82;1.33;;;9.90;99.90;;;;;;5325698;26;20024;-67
2024/04/25 09:06:48;;;;;;;7.25;1.23;;;9.70;99.90;;;;;;5323882;26;20025;-65
2024/04/25 09:09:17;;;;;;;4.93;1.08;;;9.50;99.90;;;;;;5321952;26;20021;-65
2024/04/25 09:11:43;;;;;;;7.95;1.58;;;9.30;99.90;;;;;;5329015;26;20427;-68
2024/04/25 09:14:10;;;;;;;6.32;1.10;;;9.10;99.90;;;;;;5317525;26;20012;-66
2024/04/25 09:16:39;;;;;;;8.68;1.33;;;8.90;99.90;;;;;;5335481;26;20419;-66
2024/04/25 09:19:07;;;;;;;5.07;1.42;;;8.90;99.90;;;;;;5325526;26;20053;-66
2024/04/25 09:21:35;;;;;;;4.75;1.17;;;8.90;99.90;;;;;;5327885;26;20017;-65
2024/04/25 09:24:01;;;;;;;6.35;1.15;;;8.90;99.90;;;;;;5321781;26;20005;-66
2024/04/25 09:26:30;;;;;;;4.65;1.02;;;8.90;99.90;;;;;;5334161;26;20006;-66
2024/04/25 09:28:56;;;;;;;5.55;1.30;;;9.10;99.90;;;;;;5321009;26;20009;-66
2024/04/25 09:31:22;;;;;;;7.68;1.15;;;9.10;99.90;;;;;;5327858;26;20457;-66
2024/04/25 09:33:48;;;;;;;5.15;0.98;;;9.00;99.90;;;;;;5330462;26;20086;-67
2024/04/25 09:36:14;;;;;;;4.88;1.08;;;8.90;99.90;;;;;;5334594;26;20116;-66
2024/04/25 09:38:40;;;;;;;8.43;1.33;;;8.90;99.90;;;;;;5322740;26;20331;-66
2024/04/25 09:41:08;;;;;;;6.85;1.00;;;8.80;99.90;;;;;;5326944;26;20349;-67
2024/04/25 09:43:34;;;;;;;7.63;1.10;;;8.80;99.90;;;;;;5328007;26;20002;-66
2024/04/25 09:46:06;;;;;;;5.22;1.08;;;8.90;99.90;;;;;;5318471;26;20021;-67
2024/04/25 09:48:35;;;;;;;5.22;1.25;;;8.90;99.90;;;;;;5304436;26;20024;-66
2024/04/25 09:51:13;;;;;;;6.85;1.30;;;9.00;99.90;;;;;;5330499;26;20013;-67
2024/04/25 09:54:02;;;;;;;6.53;1.23;;;9.10;99.90;;;;;;5330722;26;20005;-67
2024/04/25 09:56:34;;;;;;;4.28;0.80;;;9.20;99.90;;;;;;5327336;26;20025;-66
2024/04/25 09:59:18;;;;;;;2.60;0.90;;;9.10;99.90;;;;;;5325617;26;20107;-67
2024/04/25 10:01:44;;;;;;;5.82;0.85;;;8.90;99.90;;;;;;5336931;26;20029;-66
2024/04/25 10:04:11;;;;;;;5.38;0.80;;;8.80;99.90;;;;;;5330107;26;20032;-67
2024/04/25 10:06:38;;;;;;;4.45;0.80;;;8.70;99.90;;;;;;5325985;26;20462;-67
2024/04/25 10:09:05;;;;;;;6.22;0.88;;;8.60;99.90;;;;;;5331804;26;20298;-67
2024/04/25 10:11:35;;;;;;;6.32;1.00;;;8.50;99.90;;;;;;5325756;26;20016;-67
2024/04/25 10:14:01;;;;;;;6.72;1.15;;;8.60;99.90;;;;;;5318777;26;20010;-67
2024/04/25 10:16:28;;;;;;;4.05;0.90;;;8.50;99.90;;;;;;5332779;26;20311;-67
2024/04/25 10:18:54;;;;;;;5.75;0.90;;;8.60;99.90;;;;;;5329755;26;20009;-67
2024/04/25 10:21:23;;;;;;;5.18;1.30;;;8.70;99.90;;;;;;5326297;26;20051;-67
2024/04/25 10:23:51;;;;;;;6.53;1.48;;;8.80;99.90;;;;;;5330543;26;20014;-66
2024/04/25 10:26:18;;;;;;;8.18;1.55;;;9.00;99.90;;;;;;5322931;26;20083;-66
2024/04/25 10:28:56;;;;;;;4.10;0.88;;;9.20;99.90;;;;;;5331911;26;20017;-67
2024/04/25 10:31:32;;;;;;;6.90;1.55;;;9.40;99.90;;;;;;5326811;26;20453;-67
2024/04/25 10:33:58;;;;;;;5.72;1.02;;;9.70;99.90;;;;;;5329391;26;20033;-67
2024/04/25 10:36:27;;;;;;;5.70;1.25;;;10.20;99.90;;;;;;5329960;26;20068;-67
2024/04/25 10:38:55;;;;;;;5.15;1.30;;;10.60;99.90;;;;;;5334002;26;20067;-67
2024/04/25 10:41:38;;;;;;;5.35;1.33;;;10.80;99.90;;;;;;5327230;26;20357;-67
2024/04/25 10:44:05;;;;;;;5.00;0.93;;;10.70;99.90;;;;;;5326950;26;20002;-67
2024/04/25 10:46:31;;;;;;;6.65;1.30;;;10.60;99.90;;;;;;5350979;26;20033;-67
2024/04/25 10:48:57;;;;;;;7.72;1.48;;;10.40;99.90;;;;;;5320011;26;20036;-67
2024/04/25 10:51:23;;;;;;;4.25;0.88;;;10.20;99.90;;;;;;5327692;26;20009;-67
2024/04/25 10:53:49;;;;;;;5.57;0.98;;;10.10;99.90;;;;;;5330582;26;20418;-68
2024/04/25 10:56:18;;;;;;;4.40;0.98;;;10.00;99.90;;;;;;5321492;26;20012;-68
2024/04/25 10:59:00;;;;;;;4.03;0.75;;;10.00;99.90;;;;;;5333950;26;20020;-67
2024/04/25 11:01:30;;;;;;;2.95;0.73;;;10.10;99.90;;;;;;5319935;26;20438;-68
2024/04/25 11:04:05;;;;;;;4.95;1.13;;;10.10;99.90;;;;;;5320350;26;20025;-68
2024/04/25 11:06:37;;;;;;;8.50;1.77;;;10.20;99.90;;;;;;5324838;26;20087;-66
2024/04/25 11:09:03;;;;;;;8.10;1.02;;;10.30;99.90;;;;;;5318725;26;20087;-67
2024/04/25 11:11:29;;;;;;;5.55;0.95;;;10.30;99.90;;;;;;5322189;26;20010;-67
2024/04/25 11:13:56;;;;;;;7.70;1.27;;;10.30;99.90;;;;;;5320294;26;20001;-67
2024/04/25 11:16:22;;;;;;;5.75;1.05;;;10.30;99.90;;;;;;5324659;26;20128;-67
2024/04/25 11:18:53;;;;;;;4.45;1.13;;;10.20;99.90;;;;;;5326336;26;20254;-67
2024/04/25 11:21:21;;;;;;;5.50;1.00;;;10.20;99.90;;;;;;5331383;26;20486;-66
2024/04/25 11:23:48;;;;;;;5.53;1.00;;;10.20;99.90;;;;;;5334834;26;20009;-66
2024/04/25 11:26:14;;;;;;;5.05;0.95;;;10.10;99.90;;;;;;5329171;26;20360;-67
2024/04/25 11:28:40;;;;;;;4.22;0.82;;;10.00;99.90;;;;;;5321777;26;20774;-67
2024/04/25 11:31:07;;;;;;;4.68;1.13;;;9.90;99.90;;;;;;5329511;26;20343;-67
2024/04/25 11:33:33;;;;;;;5.20;1.05;;;9.90;99.90;;;;;;5327838;26;20009;-67
2024/04/25 11:35:58;;;;;;;5.03;1.10;;;9.80;99.90;;;;;;5325504;26;20485;-66
2024/04/25 11:38:26;;;;;;;4.95;1.30;;;9.70;99.90;;;;;;5355821;26;20008;-66
2024/04/25 11:40:53;;;;;;;3.38;0.73;;;9.70;99.90;;;;;;5325715;26;20018;-67
2024/04/25 11:43:20;;;;;;;7.05;1.25;;;9.70;99.90;;;;;;5327353;26;20419;-67
2024/04/25 11:45:46;;;;;;;6.32;1.02;;;9.60;99.90;;;;;;5337098;26;20475;-67
2024/04/25 11:48:21;;;;;;;4.10;1.13;;;9.60;99.90;;;;;;5318291;26;20020;-67
2024/04/25 11:50:47;;;;;;;3.70;0.95;;;9.70;99.90;;;;;;5317124;26;20065;-68
2024/04/25 11:53:13;;;;;;;4.80;1.20;;;9.70;99.90;;;;;;5323181;26;20016;-67
2024/04/25 11:55:40;;;;;;;5.55;0.90;;;9.80;99.90;;;;;;5331158;26;20017;-67
2024/04/25 11:58:09;;;;;;;6.20;1.38;;;9.80;99.90;;;;;;5321693;26;20020;-68
2024/04/25 12:00:37;;;;;;;4.13;1.67;;;9.70;99.90;;;;;;5323299;26;20541;-67
2024/04/25 12:03:03;;;;;;;4.70;1.42;;;9.50;99.90;;;;;;5327243;26;20017;-67
2024/04/25 12:05:31;;;;;;;8.13;1.20;;;9.30;99.90;;;;;;5326782;26;20108;-67
2024/04/25 12:08:03;;;;;;;1.48;0.50;;;9.10;99.90;;;;;;5352263;26;20008;-67
2024/04/25 12:10:32;;;;;;;3.50;0.82;;;8.90;99.90;;;;;;5315021;26;20049;-68
2024/04/25 12:12:58;;;;;;;1.73;0.38;;;8.80;99.90;;;;;;5327534;26;20064;-68
2024/04/25 12:15:24;;;;;;;3.30;0.80;;;8.70;99.90;;;;;;5325621;26;20672;-66
2024/04/25 12:17:50;;;;;;;5.45;1.25;;;8.60;99.90;;;;;;5330184;26;20019;-67
2024/04/25 12:20:16;;;;;;;4.70;0.98;;;8.50;99.90;;;;;;5328071;26;20016;-67
2024/04/25 12:22:44;;;;;;;2.53;0.52;;;8.50;99.90;;;;;;5330827;26;20008;-67
2024/04/25 12:25:10;;;;;;;4.22;0.70;;;8.40;99.90;;;;;;5333532;26;20079;-67
2024/04/25 12:27:35;;;;;;;3.47;0.63;;;8.50;99.90;;;;;;5354413;26;20041;-66
2024/04/25 12:30:01;;;;;;;3.20;0.70;;;8.60;99.90;;;;;;5321426;26;20014;-66
2024/04/25 12:32:27;;;;;;;5.22;0.70;;;8.60;99.90;;;;;;5333775;26;20024;-65
2024/04/25 12:34:53;;;;;;;3.13;0.47;;;8.70;99.90;;;;;;5329228;26;20040;-67
2024/04/25 12:37:19;;;;;;;2.80;0.60;;;8.70;99.90;;;;;;5330448;26;20423;-66
2024/04/25 12:39:44;;;;;;;3.95;0.73;;;8.80;99.90;;;;;;5325397;26;20016;-65
2024/04/25 12:42:10;;;;;;;4.25;0.98;;;8.80;99.90;;;;;;5324484;26;20006;-66
2024/04/25 12:44:36;;;;;;;4.68;0.80;;;8.90;99.90;;;;;;5325158;26;20010;-66
2024/04/25 12:47:02;;;;;;;5.00;1.00;;;9.10;99.90;;;;;;5327825;26;20016;-67
2024/04/25 12:49:33;;;;;;;5.10;0.80;;;9.30;99.90;;;;;;5325411;26;20508;-67
2024/04/25 12:51:59;;;;;;;3.90;0.85;;;9.50;99.90;;;;;;5351021;26;20028;-68
2024/04/25 12:54:25;;;;;;;4.22;0.70;;;9.80;99.90;;;;;;5323045;26;20009;-68
2024/04/25 12:56:51;;;;;;;3.28;1.17;;;9.90;99.90;;;;;;5327789;26;20464;-68
2024/04/25 12:59:17;;;;;;;3.67;0.80;;;9.90;99.90;;;;;;5327127;26;20004;-68
2024/04/25 13:01:44;;;;;;;2.97;0.75;;;9.80;99.90;;;;;;5324166;26;20013;-67